createdAt,value
2022-12-20T00:01:23.869Z,100487.48
2022-12-20T00:03:51.909Z,100491.32
2022-12-20T00:06:19.145Z,100484.63
2022-12-20T00:08:46.393Z,100469.24
2022-12-20T00:11:13.452Z,100473.95
2022-12-20T00:13:40.416Z,100472.59
2022-12-20T00:16:12.606Z,100469.75
2022-12-20T00:18:40.377Z,100471.39
2022-12-20T00:21:08.711Z,100468.39
2022-12-20T00:23:36.307Z,100479.02
2022-12-20T00:26:07.839Z,100487.50
2022-12-20T00:28:35.202Z,100488.66
2022-12-20T00:31:03.533Z,100474.96
2022-12-20T00:33:35.013Z,100467.08
2022-12-20T00:36:01.978Z,100461.96
2022-12-20T00:38:28.917Z,100458.64
2022-12-20T00:41:10.373Z,100449.55
2022-12-20T00:43:37.689Z,100444.11
2022-12-20T00:46:05.095Z,100436.83
2022-12-20T00:48:33.317Z,100432.27
2022-12-20T00:51:01.286Z,100435.70
2022-12-20T00:53:28.480Z,100428.16
2022-12-20T00:55:55.562Z,100428.15
2022-12-20T00:58:22.513Z,100423.67
2022-12-20T01:00:55.935Z,100423.53
2022-12-20T01:03:24.912Z,100417.93
2022-12-20T01:06:02.380Z,100418.58
2022-12-20T01:08:30.366Z,100413.70
2022-12-20T01:11:09.244Z,100417.59
2022-12-20T01:13:37.594Z,100412.25
2022-12-20T01:16:09.934Z,100403.94
2022-12-20T01:18:37.580Z,100400.23
2022-12-20T01:21:05.822Z,100401.77
2022-12-20T01:23:32.723Z,100395.20
2022-12-20T01:26:00.771Z,100385.25
2022-12-20T01:28:28.378Z,100381.13
2022-12-20T01:30:55.758Z,100371.90
2022-12-20T01:33:22.802Z,100364.63
2022-12-20T01:35:56.924Z,100355.76
2022-12-20T01:38:23.964Z,100347.00
2022-12-20T01:40:51.132Z,100346.41
2022-12-20T01:43:18.673Z,100344.46
2022-12-20T01:45:47.196Z,100341.31
2022-12-20T01:48:21.713Z,100329.04
2022-12-20T01:50:48.722Z,100331.98
2022-12-20T01:53:16.816Z,100332.81
2022-12-20T01:55:43.843Z,100330.12
2022-12-20T01:58:12.326Z,100321.23
2022-12-20T02:00:39.437Z,100314.49
2022-12-20T02:03:12.108Z,100309.52
2022-12-20T02:05:41.245Z,100303.52
2022-12-20T02:08:08.232Z,100308.19
2022-12-20T02:11:07.639Z,100305.74
2022-12-20T02:13:40.927Z,100305.52
2022-12-20T02:16:07.823Z,100304.17
2022-12-20T02:19:12.776Z,100306.11
2022-12-20T02:21:41.725Z,100293.55
2022-12-20T02:24:34.929Z,100281.17
2022-12-20T02:27:18.089Z,100272.18
2022-12-20T02:30:18.789Z,100267.91
2022-12-20T02:33:00.171Z,100264.81
2022-12-20T02:35:29.780Z,100272.41
2022-12-20T02:37:59.326Z,100274.40
2022-12-20T02:40:31.773Z,100274.69
2022-12-20T02:43:00.651Z,100263.60
2022-12-20T02:45:34.130Z,100262.96
2022-12-20T02:48:04.696Z,100253.66
2022-12-20T02:50:38.811Z,100242.28
2022-12-20T02:53:05.829Z,100233.95
2022-12-20T02:55:48.126Z,100227.34
2022-12-20T02:58:23.680Z,100233.73
2022-12-20T03:00:50.828Z,100241.48
2022-12-20T03:03:24.080Z,100238.95
2022-12-20T03:05:53.974Z,100232.16
2022-12-20T03:08:23.060Z,100228.79
2022-12-20T03:10:50.817Z,100220.49
2022-12-20T03:13:17.804Z,100212.02
2022-12-20T03:15:51.441Z,100203.25
2022-12-20T03:18:18.575Z,100199.86
2022-12-20T03:20:45.561Z,100205.47
2022-12-20T03:23:12.469Z,100206.73
2022-12-20T03:25:39.422Z,100203.31
2022-12-20T03:28:06.972Z,100200.93
2022-12-20T03:30:33.973Z,100202.13
2022-12-20T03:33:01.207Z,100196.23
2022-12-20T03:35:28.212Z,100191.98
2022-12-20T03:37:56.564Z,100186.91
2022-12-20T03:40:23.591Z,100182.67
2022-12-20T03:42:50.594Z,100173.02
2022-12-20T03:45:17.774Z,100166.58
2022-12-20T03:47:45.228Z,100156.77
2022-12-20T03:50:12.857Z,100155.58
2022-12-20T03:52:40.225Z,100158.13
2022-12-20T03:55:08.194Z,100158.46
2022-12-20T03:57:40.617Z,100160.84
2022-12-20T04:00:17.122Z,100162.02
2022-12-20T04:02:46.629Z,100168.80
2022-12-20T04:05:14.229Z,100168.77
2022-12-20T04:07:41.254Z,100159.46
2022-12-20T04:10:09.274Z,100156.23
2022-12-20T04:12:36.269Z,100151.50
2022-12-20T04:15:04.826Z,100145.40
2022-12-20T04:17:31.742Z,100148.29
2022-12-20T04:19:59.029Z,100142.85
2022-12-20T04:22:26.472Z,100141.16
2022-12-20T04:24:59.304Z,100141.67
2022-12-20T04:27:31.331Z,100142.02
2022-12-20T04:29:59.004Z,100144.39
2022-12-20T04:32:26.592Z,100134.71
2022-12-20T04:34:53.510Z,100125.57
2022-12-20T04:37:20.930Z,100122.02
2022-12-20T04:39:51.932Z,100113.37
2022-12-20T04:42:21.225Z,100116.42
2022-12-20T04:44:48.857Z,100109.81
2022-12-20T04:47:17.750Z,100111.84
2022-12-20T04:49:44.605Z,100104.05
2022-12-20T04:52:30.586Z,100105.05
2022-12-20T04:54:57.481Z,100100.98
2022-12-20T04:57:27.848Z,100092.01
2022-12-20T04:59:54.911Z,100095.05
2022-12-20T05:02:22.410Z,100086.24
2022-12-20T05:04:52.207Z,100082.69
2022-12-20T05:07:19.080Z,100077.44
2022-12-20T05:09:50.812Z,100074.38
2022-12-20T05:17:04.735Z,100084.21
2022-12-20T05:19:32.515Z,100086.23
2022-12-20T05:22:19.321Z,100080.80
2022-12-20T05:25:19.140Z,100080.98
2022-12-20T05:27:47.723Z,100073.34
2022-12-20T05:30:16.617Z,100074.02
2022-12-20T05:32:45.914Z,100072.32
2022-12-20T05:35:13.397Z,100072.33
2022-12-20T05:37:41.060Z,100062.32
2022-12-20T05:40:14.430Z,100066.73
2022-12-20T05:42:41.984Z,100060.96
2022-12-20T05:45:12.911Z,100063.84
2022-12-20T05:47:53.489Z,100066.21
2022-12-20T05:50:21.060Z,100066.20
2022-12-20T05:53:27.211Z,100059.94
2022-12-20T05:55:57.121Z,100065.86
2022-12-20T05:58:30.305Z,100051.11
2022-12-20T06:01:05.069Z,100049.59
2022-12-20T06:03:35.432Z,100031.44
2022-12-20T06:06:13.661Z,100024.83
2022-12-20T06:08:43.272Z,100030.08
2022-12-20T06:11:15.965Z,100033.80
2022-12-20T06:13:51.673Z,100030.58
2022-12-20T06:16:21.846Z,100025.31
2022-12-20T06:18:50.862Z,100029.19
2022-12-20T06:21:18.379Z,100025.78
2022-12-20T06:23:46.045Z,100024.92
2022-12-20T06:26:15.053Z,100022.36
2022-12-20T06:28:52.992Z,100029.98
2022-12-20T06:31:30.064Z,100023.88
2022-12-20T06:33:58.493Z,100018.41
2022-12-20T06:36:30.866Z,100013.32
2022-12-20T06:38:58.342Z,100020.44
2022-12-20T06:41:26.911Z,99997.16
2022-12-20T06:43:56.131Z,100003.09
2022-12-20T06:46:23.712Z,100009.67
2022-12-20T06:48:51.433Z,100005.38
2022-12-20T06:51:19.296Z,100007.90
2022-12-20T06:53:47.473Z,100005.16
2022-12-20T06:56:14.937Z,100011.41
2022-12-20T06:58:42.383Z,100012.58
2022-12-20T07:01:09.995Z,100015.27
2022-12-20T07:03:39.056Z,100018.14
2022-12-20T07:06:07.104Z,100014.19
2022-12-20T07:08:34.558Z,100006.70
2022-12-20T07:11:06.961Z,100010.77
2022-12-20T07:13:34.862Z,100009.08
2022-12-20T07:16:03.399Z,100013.46
2022-12-20T07:18:33.198Z,100004.46
2022-12-20T07:21:01.779Z,100002.55
2022-12-20T07:23:29.254Z,99999.83
2022-12-20T07:25:57.203Z,99997.08
2022-12-20T07:28:26.169Z,100005.05
2022-12-20T07:30:54.573Z,100002.11
2022-12-20T07:33:24.229Z,99996.46
2022-12-20T07:35:54.836Z,99994.58
2022-12-20T07:38:22.500Z,99988.41
2022-12-20T07:40:49.926Z,99999.60
2022-12-20T07:43:19.036Z,99994.42
2022-12-20T07:45:47.885Z,100000.84
2022-12-20T07:48:19.781Z,99994.38
2022-12-20T07:50:49.186Z,99994.20
2022-12-20T07:53:16.753Z,99993.64
2022-12-20T07:55:44.192Z,99989.61
2022-12-20T07:58:12.379Z,99986.40
2022-12-20T08:00:39.934Z,99982.66
2022-12-20T08:03:19.173Z,99981.11
2022-12-20T09:43:31.852Z,99867.62
2022-12-20T09:46:03.687Z,99862.85
2022-12-20T09:48:35.543Z,99864.30
2022-12-20T09:51:15.389Z,99857.39
2022-12-20T09:53:55.661Z,99853.71
2022-12-20T09:56:26.485Z,99855.95
2022-12-20T10:06:58.191Z,99849.98
2022-12-20T10:09:56.983Z,99840.90
2022-12-20T10:13:06.123Z,99834.56
2022-12-20T10:15:34.636Z,99827.75
2022-12-20T10:18:21.195Z,99823.98
2022-12-20T10:20:58.609Z,99816.23
2022-12-20T10:23:33.637Z,99816.58
2022-12-20T10:26:01.163Z,99814.06
2022-12-20T10:28:30.727Z,99808.55
2022-12-20T10:31:02.987Z,99801.20
2022-12-20T10:33:31.482Z,99797.80
2022-12-20T10:36:24.374Z,99795.48
2022-12-20T10:38:56.343Z,99795.42
2022-12-20T10:41:28.287Z,99790.52
2022-12-20T10:44:06.208Z,99781.88
2022-12-20T10:46:42.145Z,99778.50
2022-12-20T10:49:31.560Z,99775.98
2022-12-20T10:52:09.536Z,99767.45
2022-12-20T10:54:38.356Z,99762.00
2022-12-20T10:57:26.015Z,99762.05
2022-12-20T10:59:55.153Z,99752.64
2022-12-20T11:02:25.120Z,99747.85
2022-12-20T11:05:02.940Z,99741.88
2022-12-20T11:07:32.628Z,99739.55
2022-12-20T11:10:27.165Z,99738.44
2022-12-20T11:12:54.546Z,99738.83
2022-12-20T11:15:32.749Z,99736.15
2022-12-20T11:18:34.280Z,99726.15
2022-12-20T11:21:01.425Z,99726.52
2022-12-20T11:23:58.382Z,99721.61
2022-12-20T11:26:36.737Z,99718.98
2022-12-20T11:29:08.553Z,99708.85
2022-12-20T11:31:59.707Z,99708.29
2022-12-20T11:34:40.651Z,99710.80
2022-12-20T11:37:08.301Z,99712.65
2022-12-20T11:39:42.204Z,99708.21
2022-12-20T11:42:29.213Z,99707.33
2022-12-20T11:45:10.169Z,99707.15
2022-12-20T14:12:35.979Z,99591.34
2022-12-20T14:15:21.719Z,99587.03
2022-12-20T14:17:48.777Z,99586.54
2022-12-20T14:20:17.319Z,99586.64
2022-12-20T14:23:05.971Z,99583.63
2022-12-20T14:25:40.071Z,99590.10
2022-12-20T14:28:27.606Z,99590.41
2022-12-20T14:30:56.392Z,99582.67
2022-12-20T14:33:40.217Z,99591.67
2022-12-20T14:36:16.063Z,99593.13
2022-12-20T15:28:55.501Z,99562.63
2022-12-20T15:31:32.842Z,99573.72
2022-12-20T15:34:30.529Z,99563.30
2022-12-20T15:36:59.731Z,99561.69
2022-12-20T15:39:26.916Z,99558.45
2022-12-20T15:41:54.188Z,99561.64
2022-12-20T15:44:25.990Z,99558.82
2022-12-20T15:46:53.584Z,99567.99
2022-12-20T15:49:25.479Z,99562.41
2022-12-20T15:51:53.275Z,99562.77
2022-12-20T15:54:28.952Z,99558.34
2022-12-20T15:56:57.009Z,99557.99
2022-12-20T15:59:58.413Z,99554.27
2022-12-20T16:02:23.205Z,99553.37
2022-12-20T16:04:51.546Z,99558.86
2022-12-20T16:07:18.884Z,99555.22
2022-12-20T16:09:46.129Z,99548.79
2022-12-20T16:12:18.937Z,99550.06
2022-12-20T16:14:46.078Z,99540.98
2022-12-20T16:17:13.961Z,99537.90
2022-12-20T16:19:42.102Z,99543.06
2022-12-20T16:22:16.042Z,99543.12
2022-12-20T16:24:43.774Z,99543.17
2022-12-20T16:27:11.048Z,99542.48
2022-12-20T16:29:38.381Z,99538.18
2022-12-20T16:32:15.093Z,99536.54
2022-12-20T16:34:42.602Z,99534.36
2022-12-20T16:37:11.303Z,99534.30
2022-12-20T16:39:38.536Z,99528.14
2022-12-20T16:42:17.752Z,99527.20
2022-12-20T16:44:45.866Z,99526.62
2022-12-20T16:47:13.871Z,99533.01
2022-12-20T16:49:47.164Z,99529.61
2022-12-20T16:52:17.742Z,99533.55
2022-12-20T16:54:44.891Z,99534.92
2022-12-20T16:57:12.147Z,99536.79
2022-12-20T16:59:39.531Z,99531.48
2022-12-20T17:02:23.519Z,99533.27
2022-12-20T17:04:51.202Z,99530.20
2022-12-20T17:07:18.374Z,99531.32
2022-12-20T17:12:31.322Z,99529.15
2022-12-20T17:14:58.440Z,99531.15
2022-12-20T17:17:25.938Z,99539.84
2022-12-20T17:19:53.363Z,99544.52
2022-12-20T17:22:23.527Z,99537.91
2022-12-20T17:24:50.966Z,99533.56
2022-12-20T17:27:18.498Z,99531.55
2022-12-20T17:29:45.635Z,99529.51
2022-12-20T17:32:20.485Z,99530.52
2022-12-20T17:34:47.423Z,99524.80
2022-12-20T17:37:14.656Z,99528.67
2022-12-20T17:39:42.325Z,99525.08
2022-12-20T17:42:12.551Z,99526.39
2022-12-20T17:44:40.066Z,99528.97
2022-12-20T17:47:07.598Z,99526.70
2022-12-20T17:49:34.806Z,99524.20
2022-12-20T17:52:01.867Z,99520.36
2022-12-20T17:54:36.623Z,99518.95
2022-12-20T17:57:14.663Z,99508.38
2022-12-20T17:59:42.042Z,99506.19
2022-12-20T18:02:23.652Z,99509.56
2022-12-20T18:04:51.147Z,99506.95
2022-12-20T18:07:18.859Z,99500.25
2022-12-20T18:09:48.172Z,99496.96
2022-12-20T18:12:16.093Z,99493.83
2022-12-20T18:14:43.125Z,99492.11
2022-12-20T18:17:10.397Z,99492.46
2022-12-20T18:19:38.087Z,99491.94
2022-12-20T18:22:06.074Z,99489.44
2022-12-20T18:24:33.301Z,99492.44
2022-12-20T18:27:00.591Z,99488.41
2022-12-20T18:29:29.251Z,99485.26
2022-12-20T18:31:56.849Z,99485.75
2022-12-20T18:34:25.549Z,99481.55
2022-12-20T18:36:52.840Z,99479.80
2022-12-20T18:39:20.088Z,99472.23
2022-12-20T18:41:47.995Z,99468.45
2022-12-20T18:44:15.021Z,99469.33
2022-12-20T18:46:42.075Z,99465.55
2022-12-20T18:49:10.396Z,99460.36
2022-12-20T18:51:40.547Z,99456.41
2022-12-20T18:54:09.543Z,99452.55
2022-12-20T18:56:37.644Z,99451.31
2022-12-20T18:59:11.420Z,99447.48
2022-12-20T19:01:40.399Z,99445.79
2022-12-20T19:04:08.126Z,99445.98
2022-12-20T19:06:36.239Z,99444.19
2022-12-20T19:09:06.882Z,99446.75
2022-12-20T19:11:34.652Z,99445.56
2022-12-20T19:14:03.076Z,99438.17
2022-12-20T19:16:32.252Z,99435.71
2022-12-20T19:19:00.495Z,99429.15
2022-12-20T19:21:29.047Z,99436.41
2022-12-20T19:23:57.744Z,99436.13
2022-12-20T19:26:29.326Z,99435.52
2022-12-20T19:28:56.999Z,99433.52
2022-12-20T19:31:31.538Z,99431.25
2022-12-20T19:34:03.993Z,99428.67
2022-12-20T19:36:40.236Z,99427.38
2022-12-20T19:39:11.353Z,99423.88
2022-12-20T19:41:38.392Z,99425.75
2022-12-20T19:44:06.810Z,99424.09
2022-12-20T19:46:34.503Z,99420.56
2022-12-20T19:49:04.829Z,99422.44
2022-12-20T19:51:32.244Z,99422.67
2022-12-20T19:53:59.684Z,99419.94
2022-12-20T19:56:29.710Z,99419.85
2022-12-20T19:58:57.094Z,99424.64
2022-12-20T20:01:26.962Z,99422.13
2022-12-20T20:03:55.153Z,99417.20
2022-12-20T20:06:22.572Z,99415.02
2022-12-20T20:08:49.975Z,99417.73
2022-12-20T20:11:18.551Z,99417.52
2022-12-20T20:13:46.162Z,99410.54
2022-12-20T20:16:18.429Z,99413.27
2022-12-20T20:18:50.242Z,99409.21
2022-12-20T20:21:22.070Z,99409.92
2022-12-20T20:23:50.282Z,99411.39
2022-12-20T20:26:20.082Z,99401.27
2022-12-20T20:28:47.155Z,99408.25
2022-12-20T20:31:15.171Z,99402.28
2022-12-20T20:33:42.439Z,99400.77
2022-12-20T20:36:12.067Z,99405.13
2022-12-20T20:38:39.927Z,99399.96
2022-12-20T20:41:07.548Z,99400.20
2022-12-20T20:43:36.493Z,99403.10
2022-12-20T20:46:07.335Z,99407.23
2022-12-20T20:48:35.329Z,99415.06
2022-12-20T20:51:03.342Z,99417.88
2022-12-20T20:53:33.781Z,99421.91
2022-12-20T20:56:05.101Z,99429.06
2022-12-20T20:58:32.800Z,99432.29
2022-12-20T21:01:01.067Z,99431.45
2022-12-20T21:03:28.786Z,99432.75
2022-12-20T21:08:44.121Z,99424.46
2022-12-20T21:11:11.642Z,99426.11
2022-12-20T21:13:39.095Z,99424.88
2022-12-20T21:16:11.331Z,99426.46
2022-12-20T21:18:38.350Z,99427.11
2022-12-20T21:21:10.004Z,99431.05
2022-12-20T21:23:37.817Z,99433.08
2022-12-20T21:26:05.046Z,99434.62
2022-12-20T21:28:32.485Z,99432.59
2022-12-20T21:31:00.691Z,99428.36
2022-12-20T21:33:28.577Z,99421.48
2022-12-20T21:36:06.706Z,99424.79
2022-12-20T21:38:35.732Z,99424.21
2022-12-20T21:41:07.690Z,99428.14
2022-12-20T21:43:34.757Z,99430.59
2022-12-20T21:46:01.977Z,99433.10
2022-12-20T21:48:29.668Z,99433.34
2022-12-20T21:51:04.954Z,99431.70
2022-12-20T21:53:32.234Z,99429.17
2022-12-20T21:56:00.215Z,99436.77
2022-12-20T21:58:28.277Z,99443.92
2022-12-20T22:00:55.792Z,99443.98
2022-12-20T22:03:23.421Z,99436.58
2022-12-20T22:05:52.611Z,99400.88
2022-12-20T22:08:20.041Z,99364.03
2022-12-20T22:10:49.214Z,99348.85
2022-12-20T22:13:16.389Z,99349.21
2022-12-20T22:15:43.753Z,99352.05
2022-12-20T22:18:10.894Z,99351.08
2022-12-20T22:20:38.032Z,99350.66
2022-12-20T22:23:05.236Z,99348.25
2022-12-20T22:25:35.233Z,99345.14
2022-12-20T22:28:03.346Z,99348.48
2022-12-20T22:30:31.383Z,99346.62
2022-12-20T22:32:58.408Z,99331.52
2022-12-20T22:35:25.491Z,99329.38
2022-12-20T22:37:52.897Z,99337.41
2022-12-20T22:40:22.602Z,99344.48
2022-12-20T22:42:50.010Z,99351.63
2022-12-20T22:45:17.114Z,99347.24
2022-12-20T22:47:45.504Z,99344.62
2022-12-20T22:50:12.952Z,99347.42
2022-12-20T22:52:40.147Z,99343.67
2022-12-20T22:55:09.300Z,99344.02
2022-12-20T22:57:36.450Z,99335.18
2022-12-20T23:00:06.301Z,99331.54
2022-12-20T23:02:33.604Z,99335.65
2022-12-20T23:05:00.763Z,99335.62
2022-12-20T23:07:28.064Z,99344.52
2022-12-20T23:09:55.472Z,99340.48
2022-12-20T23:12:41.566Z,99345.55
2022-12-20T23:15:31.369Z,99341.92
2022-12-20T23:17:58.441Z,99343.06
2022-12-20T23:20:45.821Z,99341.14
2022-12-20T23:23:12.952Z,99343.73
2022-12-20T23:25:41.475Z,99343.02
2022-12-20T23:28:08.609Z,99345.46
2022-12-20T23:30:35.886Z,99345.30
2022-12-20T23:33:02.965Z,99348.98
2022-12-20T23:35:31.059Z,99350.63
2022-12-20T23:37:58.599Z,99353.84
2022-12-20T23:40:25.706Z,99345.55
2022-12-20T23:42:54.155Z,99340.64
2022-12-20T23:45:21.132Z,99341.45
2022-12-20T23:47:49.171Z,99343.86
2022-12-20T23:50:16.421Z,99347.33
2022-12-20T23:52:44.914Z,99349.35
2022-12-20T23:55:13.131Z,99335.92
2022-12-20T23:57:40.436Z,99335.29
